sensor_id;sensor_type;location;lat;lon;timestamp;P1;P2;P0
62591;PMS5003;48659;41.622;2.276;2024-02-28T00:01:20;11;8;
62591;PMS5003;48659;41.622;2.276;2024-02-28T00:03:47;13;12;
62591;PMS5003;48659;41.622;2.276;2024-02-28T00:06:15;9;9;
62591;PMS5003;48659;41.622;2.276;2024-02-28T00:08:43;9;9;
62591;PMS5003;48659;41.622;2.276;2024-02-28T00:11:10;9;9;
62591;PMS5003;48659;41.622;2.276;2024-02-28T00:13:37;12;10;
62591;PMS5003;48659;41.622;2.276;2024-02-28T00:16:05;11;11;
62591;PMS5003;48659;41.622;2.276;2024-02-28T00:18:33;10;9;
62591;PMS5003;48659;41.622;2.276;2024-02-28T00:21:00;15;9;
62591;PMS5003;48659;41.622;2.276;2024-02-28T00:23:27;11;11;
62591;PMS5003;48659;41.622;2.276;2024-02-28T00:25:55;10;8;
62591;PMS5003;48659;41.622;2.276;2024-02-28T00:28:22;10;10;
62591;PMS5003;48659;41.622;2.276;2024-02-28T00:30:49;10;10;
62591;PMS5003;48659;41.622;2.276;2024-02-28T00:33:17;13;11;
62591;PMS5003;48659;41.622;2.276;2024-02-28T00:35:44;17;14;
62591;PMS5003;48659;41.622;2.276;2024-02-28T00:38:11;10;9;
62591;PMS5003;48659;41.622;2.276;2024-02-28T00:40:38;10;10;
62591;PMS5003;48659;41.622;2.276;2024-02-28T00:43:05;15;11;
62591;PMS5003;48659;41.622;2.276;2024-02-28T00:45:33;10;9;
62591;PMS5003;48659;41.622;2.276;2024-02-28T00:48:00;10;10;
62591;PMS5003;48659;41.622;2.276;2024-02-28T00:50:28;14;11;
62591;PMS5003;48659;41.622;2.276;2024-02-28T00:52:55;15;15;
62591;PMS5003;48659;41.622;2.276;2024-02-28T00:55:23;11;11;
62591;PMS5003;48659;41.622;2.276;2024-02-28T00:57:50;14;8;
62591;PMS5003;48659;41.622;2.276;2024-02-28T01:00:18;14;12;
62591;PMS5003;48659;41.622;2.276;2024-02-28T01:02:45;12;10;
62591;PMS5003;48659;41.622;2.276;2024-02-28T01:05:14;10;8;
62591;PMS5003;48659;41.622;2.276;2024-02-28T01:07:41;11;8;
62591;PMS5003;48659;41.622;2.276;2024-02-28T01:10:09;13;13;
62591;PMS5003;48659;41.622;2.276;2024-02-28T01:12:36;12;10;
62591;PMS5003;48659;41.622;2.276;2024-02-28T01:15:04;10;10;
62591;PMS5003;48659;41.622;2.276;2024-02-28T01:17:32;11;10;
62591;PMS5003;48659;41.622;2.276;2024-02-28T01:19:59;9;8;
62591;PMS5003;48659;41.622;2.276;2024-02-28T01:22:27;12;8;
62591;PMS5003;48659;41.622;2.276;2024-02-28T01:24:55;11;11;
62591;PMS5003;48659;41.622;2.276;2024-02-28T01:27:22;11;11;
62591;PMS5003;48659;41.622;2.276;2024-02-28T01:29:56;13;10;
62591;PMS5003;48659;41.622;2.276;2024-02-28T01:32:24;18;13;
62591;PMS5003;48659;41.622;2.276;2024-02-28T01:34:51;10;9;
62591;PMS5003;48659;41.622;2.276;2024-02-28T01:37:18;13;13;
62591;PMS5003;48659;41.622;2.276;2024-02-28T01:39:45;13;11;
62591;PMS5003;48659;41.622;2.276;2024-02-28T01:42:22;16;14;
62591;PMS5003;48659;41.622;2.276;2024-02-28T01:44:55;9;9;
62591;PMS5003;48659;41.622;2.276;2024-02-28T01:47:23;14;10;
62591;PMS5003;48659;41.622;2.276;2024-02-28T01:49:51;7;7;
62591;PMS5003;48659;41.622;2.276;2024-02-28T01:52:18;11;9;
62591;PMS5003;48659;41.622;2.276;2024-02-28T01:54:47;11;8;
62591;PMS5003;48659;41.622;2.276;2024-02-28T01:57:15;9;8;
62591;PMS5003;48659;41.622;2.276;2024-02-28T01:59:43;11;11;
62591;PMS5003;48659;41.622;2.276;2024-02-28T02:02:12;9;8;
62591;PMS5003;48659;41.622;2.276;2024-02-28T02:04:39;11;8;
62591;PMS5003;48659;41.622;2.276;2024-02-28T02:07:07;15;12;
62591;PMS5003;48659;41.622;2.276;2024-02-28T02:09:34;9;7;
62591;PMS5003;48659;41.622;2.276;2024-02-28T02:12:02;15;13;
62591;PMS5003;48659;41.622;2.276;2024-02-28T02:14:29;10;7;
62591;PMS5003;48659;41.622;2.276;2024-02-28T02:16:56;13;9;
62591;PMS5003;48659;41.622;2.276;2024-02-28T02:19:24;11;10;
62591;PMS5003;48659;41.622;2.276;2024-02-28T02:21:57;7;5;
62591;PMS5003;48659;41.622;2.276;2024-02-28T02:24:25;8;7;
62591;PMS5003;48659;41.622;2.276;2024-02-28T02:26:54;6;5;
62591;PMS5003;48659;41.622;2.276;2024-02-28T02:29:23;3;3;
62591;PMS5003;48659;41.622;2.276;2024-02-28T02:32:01;4;4;
62591;PMS5003;48659;41.622;2.276;2024-02-28T02:34:29;3;3;
62591;PMS5003;48659;41.622;2.276;2024-02-28T02:36:56;3;3;
62591;PMS5003;48659;41.622;2.276;2024-02-28T02:39:22;3;3;
62591;PMS5003;48659;41.622;2.276;2024-02-28T02:41:50;1;0;
62591;PMS5003;48659;41.622;2.276;2024-02-28T02:44:17;3;1;
62591;PMS5003;48659;41.622;2.276;2024-02-28T02:46:44;2;2;
62591;PMS5003;48659;41.622;2.276;2024-02-28T02:49:11;2;2;
62591;PMS5003;48659;41.622;2.276;2024-02-28T02:51:39;3;1;
62591;PMS5003;48659;41.622;2.276;2024-02-28T02:54:06;1;1;
62591;PMS5003;48659;41.622;2.276;2024-02-28T02:56:33;1;1;
62591;PMS5003;48659;41.622;2.276;2024-02-28T02:59:00;0;0;
62591;PMS5003;48659;41.622;2.276;2024-02-28T03:01:27;0;0;
62591;PMS5003;48659;41.622;2.276;2024-02-28T03:03:54;0;0;
62591;PMS5003;48659;41.622;2.276;2024-02-28T03:06:21;1;1;
62591;PMS5003;48659;41.622;2.276;2024-02-28T03:08:49;1;1;
62591;PMS5003;48659;41.622;2.276;2024-02-28T03:11:17;1;1;
62591;PMS5003;48659;41.622;2.276;2024-02-28T03:13:44;1;1;
62591;PMS5003;48659;41.622;2.276;2024-02-28T03:16:11;2;1;
62591;PMS5003;48659;41.622;2.276;2024-02-28T03:18:39;1;1;
62591;PMS5003;48659;41.622;2.276;2024-02-28T03:21:06;1;0;
62591;PMS5003;48659;41.622;2.276;2024-02-28T03:23:34;1;1;
62591;PMS5003;48659;41.622;2.276;2024-02-28T03:26:01;3;1;
62591;PMS5003;48659;41.622;2.276;2024-02-28T03:28:29;0;0;
62591;PMS5003;48659;41.622;2.276;2024-02-28T03:30:56;1;1;
62591;PMS5003;48659;41.622;2.276;2024-02-28T03:33:23;1;1;
62591;PMS5003;48659;41.622;2.276;2024-02-28T03:35:50;1;1;
62591;PMS5003;48659;41.622;2.276;2024-02-28T03:38:18;0;0;
62591;PMS5003;48659;41.622;2.276;2024-02-28T03:40:45;1;1;
62591;PMS5003;48659;41.622;2.276;2024-02-28T03:43:13;2;2;
62591;PMS5003;48659;41.622;2.276;2024-02-28T03:45:41;5;3;
62591;PMS5003;48659;41.622;2.276;2024-02-28T03:48:09;2;2;
62591;PMS5003;48659;41.622;2.276;2024-02-28T03:50:36;2;2;
62591;PMS5003;48659;41.622;2.276;2024-02-28T03:53:04;2;2;
62591;PMS5003;48659;41.622;2.276;2024-02-28T03:55:31;3;2;
62591;PMS5003;48659;41.622;2.276;2024-02-28T03:57:58;1;0;
62591;PMS5003;48659;41.622;2.276;2024-02-28T04:00:25;2;2;
62591;PMS5003;48659;41.622;2.276;2024-02-28T04:02:56;2;2;
62591;PMS5003;48659;41.622;2.276;2024-02-28T04:05:23;5;3;
62591;PMS5003;48659;41.622;2.276;2024-02-28T04:07:55;2;2;
62591;PMS5003;48659;41.622;2.276;2024-02-28T04:10:24;1;1;
62591;PMS5003;48659;41.622;2.276;2024-02-28T04:12:51;3;1;
62591;PMS5003;48659;41.622;2.276;2024-02-28T04:15:19;3;2;
62591;PMS5003;48659;41.622;2.276;2024-02-28T04:17:56;2;2;
62591;PMS5003;48659;41.622;2.276;2024-02-28T04:20:24;1;1;
62591;PMS5003;48659;41.622;2.276;2024-02-28T04:22:52;1;1;
62591;PMS5003;48659;41.622;2.276;2024-02-28T04:25:19;2;2;
62591;PMS5003;48659;41.622;2.276;2024-02-28T04:27:56;2;1;
62591;PMS5003;48659;41.622;2.276;2024-02-28T04:30:24;4;2;
62591;PMS5003;48659;41.622;2.276;2024-02-28T04:32:51;2;2;
62591;PMS5003;48659;41.622;2.276;2024-02-28T04:35:19;4;1;
62591;PMS5003;48659;41.622;2.276;2024-02-28T04:37:47;2;2;
62591;PMS5003;48659;41.622;2.276;2024-02-28T04:40:15;2;1;
62591;PMS5003;48659;41.622;2.276;2024-02-28T04:42:43;0;0;
62591;PMS5003;48659;41.622;2.276;2024-02-28T04:45:11;1;1;
62591;PMS5003;48659;41.622;2.276;2024-02-28T04:47:43;2;0;
62591;PMS5003;48659;41.622;2.276;2024-02-28T04:50:10;1;1;
62591;PMS5003;48659;41.622;2.276;2024-02-28T04:52:38;0;0;
62591;PMS5003;48659;41.622;2.276;2024-02-28T04:55:06;0;0;
62591;PMS5003;48659;41.622;2.276;2024-02-28T04:57:34;0;0;
62591;PMS5003;48659;41.622;2.276;2024-02-28T05:00:01;2;0;
62591;PMS5003;48659;41.622;2.276;2024-02-28T05:02:29;1;1;
62591;PMS5003;48659;41.622;2.276;2024-02-28T05:04:57;0;0;
62591;PMS5003;48659;41.622;2.276;2024-02-28T05:07:24;1;1;
62591;PMS5003;48659;41.622;2.276;2024-02-28T05:09:54;4;4;
62591;PMS5003;48659;41.622;2.276;2024-02-28T05:12:22;0;0;
62591;PMS5003;48659;41.622;2.276;2024-02-28T05:14:49;0;0;
62591;PMS5003;48659;41.622;2.276;2024-02-28T05:17:16;0;0;
62591;PMS5003;48659;41.622;2.276;2024-02-28T05:19:44;0;0;
62591;PMS5003;48659;41.622;2.276;2024-02-28T05:22:11;1;1;
62591;PMS5003;48659;41.622;2.276;2024-02-28T05:24:38;0;0;
62591;PMS5003;48659;41.622;2.276;2024-02-28T05:27:05;0;0;
62591;PMS5003;48659;41.622;2.276;2024-02-28T05:29:32;2;1;
62591;PMS5003;48659;41.622;2.276;2024-02-28T05:31:59;0;0;
62591;PMS5003;48659;41.622;2.276;2024-02-28T05:34:26;1;0;
62591;PMS5003;48659;41.622;2.276;2024-02-28T05:36:53;1;1;
62591;PMS5003;48659;41.622;2.276;2024-02-28T05:39:20;0;0;
62591;PMS5003;48659;41.622;2.276;2024-02-28T05:41:47;0;0;
62591;PMS5003;48659;41.622;2.276;2024-02-28T05:44:15;0;0;
62591;PMS5003;48659;41.622;2.276;2024-02-28T05:46:42;2;0;
62591;PMS5003;48659;41.622;2.276;2024-02-28T05:49:09;1;0;
62591;PMS5003;48659;41.622;2.276;2024-02-28T05:51:36;0;0;
62591;PMS5003;48659;41.622;2.276;2024-02-28T05:54:04;0;0;
62591;PMS5003;48659;41.622;2.276;2024-02-28T05:56:31;0;0;
62591;PMS5003;48659;41.622;2.276;2024-02-28T05:58:59;2;0;
62591;PMS5003;48659;41.622;2.276;2024-02-28T06:01:26;0;0;
62591;PMS5003;48659;41.622;2.276;2024-02-28T06:03:55;0;0;
62591;PMS5003;48659;41.622;2.276;2024-02-28T06:06:23;0;0;
62591;PMS5003;48659;41.622;2.276;2024-02-28T06:08:50;0;0;
62591;PMS5003;48659;41.622;2.276;2024-02-28T06:11:17;0;0;
62591;PMS5003;48659;41.622;2.276;2024-02-28T06:13:44;2;0;
62591;PMS5003;48659;41.622;2.276;2024-02-28T06:16:15;2;0;
62591;PMS5003;48659;41.622;2.276;2024-02-28T06:18:42;1;1;
62591;PMS5003;48659;41.622;2.276;2024-02-28T06:18:55;0;0;
62591;PMS5003;48659;41.622;2.276;2024-02-28T06:21:24;0;0;
62591;PMS5003;48659;41.622;2.276;2024-02-28T06:23:57;0;0;
62591;PMS5003;48659;41.622;2.276;2024-02-28T06:26:24;1;1;
62591;PMS5003;48659;41.622;2.276;2024-02-28T06:28:55;2;0;
62591;PMS5003;48659;41.622;2.276;2024-02-28T06:31:23;0;0;
62591;PMS5003;48659;41.622;2.276;2024-02-28T06:33:56;1;1;
62591;PMS5003;48659;41.622;2.276;2024-02-28T06:36:23;3;3;
62591;PMS5003;48659;41.622;2.276;2024-02-28T06:38:57;1;1;
62591;PMS5003;48659;41.622;2.276;2024-02-28T06:41:24;4;3;
62591;PMS5003;48659;41.622;2.276;2024-02-28T06:43:56;1;1;
62591;PMS5003;48659;41.622;2.276;2024-02-28T06:46:23;3;2;
62591;PMS5003;48659;41.622;2.276;2024-02-28T06:48:51;0;0;
62591;PMS5003;48659;41.622;2.276;2024-02-28T06:51:18;1;1;
62591;PMS5003;48659;41.622;2.276;2024-02-28T06:53:46;0;0;
62591;PMS5003;48659;41.622;2.276;2024-02-28T06:56:13;1;1;
62591;PMS5003;48659;41.622;2.276;2024-02-28T06:58:40;1;0;
62591;PMS5003;48659;41.622;2.276;2024-02-28T07:01:07;3;2;
62591;PMS5003;48659;41.622;2.276;2024-02-28T07:03:34;3;3;
62591;PMS5003;48659;41.622;2.276;2024-02-28T07:06:02;3;3;
62591;PMS5003;48659;41.622;2.276;2024-02-28T07:08:29;3;3;
62591;PMS5003;48659;41.622;2.276;2024-02-28T07:10:58;9;4;
62591;PMS5003;48659;41.622;2.276;2024-02-28T07:13:26;5;3;
62591;PMS5003;48659;41.622;2.276;2024-02-28T07:15:53;5;5;
62591;PMS5003;48659;41.622;2.276;2024-02-28T07:18:20;2;2;
62591;PMS5003;48659;41.622;2.276;2024-02-28T07:20:59;3;3;
62591;PMS5003;48659;41.622;2.276;2024-02-28T07:23:27;6;5;
62591;PMS5003;48659;41.622;2.276;2024-02-28T07:25:53;5;3;
62591;PMS5003;48659;41.622;2.276;2024-02-28T07:28:20;7;4;
62591;PMS5003;48659;41.622;2.276;2024-02-28T07:30:48;6;4;
62591;PMS5003;48659;41.622;2.276;2024-02-28T07:33:15;4;3;
62591;PMS5003;48659;41.622;2.276;2024-02-28T07:35:44;7;6;
62591;PMS5003;48659;41.622;2.276;2024-02-28T07:38:11;5;2;
62591;PMS5003;48659;41.622;2.276;2024-02-28T07:40:39;7;6;
62591;PMS5003;48659;41.622;2.276;2024-02-28T07:43:06;3;2;
62591;PMS5003;48659;41.622;2.276;2024-02-28T07:45:33;2;2;
62591;PMS5003;48659;41.622;2.276;2024-02-28T07:48:01;6;5;
62591;PMS5003;48659;41.622;2.276;2024-02-28T07:50:29;7;5;
62591;PMS5003;48659;41.622;2.276;2024-02-28T07:52:56;4;4;
62591;PMS5003;48659;41.622;2.276;2024-02-28T07:55:23;5;5;
62591;PMS5003;48659;41.622;2.276;2024-02-28T07:57:55;3;3;
62591;PMS5003;48659;41.622;2.276;2024-02-28T08:00:23;4;3;
62591;PMS5003;48659;41.622;2.276;2024-02-28T08:02:57;6;5;
62591;PMS5003;48659;41.622;2.276;2024-02-28T08:05:24;7;5;
62591;PMS5003;48659;41.622;2.276;2024-02-28T08:07:52;4;4;
62591;PMS5003;48659;41.622;2.276;2024-02-28T08:10:19;4;4;
62591;PMS5003;48659;41.622;2.276;2024-02-28T08:12:56;4;4;
62591;PMS5003;48659;41.622;2.276;2024-02-28T08:15:24;7;4;
62591;PMS5003;48659;41.622;2.276;2024-02-28T08:17:51;2;2;
62591;PMS5003;48659;41.622;2.276;2024-02-28T08:20:19;4;4;
62591;PMS5003;48659;41.622;2.276;2024-02-28T08:22:47;5;4;
62591;PMS5003;48659;41.622;2.276;2024-02-28T08:25:14;4;4;
62591;PMS5003;48659;41.622;2.276;2024-02-28T08:27:41;5;3;
62591;PMS5003;48659;41.622;2.276;2024-02-28T08:30:09;3;2;
62591;PMS5003;48659;41.622;2.276;2024-02-28T08:32:37;9;4;
62591;PMS5003;48659;41.622;2.276;2024-02-28T08:35:06;5;3;
62591;PMS5003;48659;41.622;2.276;2024-02-28T08:37:34;4;4;
62591;PMS5003;48659;41.622;2.276;2024-02-28T08:40:02;7;4;
62591;PMS5003;48659;41.622;2.276;2024-02-28T08:42:29;6;4;
62591;PMS5003;48659;41.622;2.276;2024-02-28T08:44:57;4;4;
62591;PMS5003;48659;41.622;2.276;2024-02-28T08:47:25;4;4;
62591;PMS5003;48659;41.622;2.276;2024-02-28T08:49:53;5;5;
62591;PMS5003;48659;41.622;2.276;2024-02-28T08:52:21;5;5;
62591;PMS5003;48659;41.622;2.276;2024-02-28T08:54:55;5;4;
62591;PMS5003;48659;41.622;2.276;2024-02-28T08:57:24;6;5;
62591;PMS5003;48659;41.622;2.276;2024-02-28T08:59:56;9;7;
62591;PMS5003;48659;41.622;2.276;2024-02-28T09:02:23;10;7;
62591;PMS5003;48659;41.622;2.276;2024-02-28T09:04:54;6;6;
62591;PMS5003;48659;41.622;2.276;2024-02-28T09:07:22;9;5;
62591;PMS5003;48659;41.622;2.276;2024-02-28T09:09:50;6;4;
62591;PMS5003;48659;41.622;2.276;2024-02-28T09:12:17;11;9;
62591;PMS5003;48659;41.622;2.276;2024-02-28T09:14:44;7;6;
62591;PMS5003;48659;41.622;2.276;2024-02-28T09:17:12;10;5;
62591;PMS5003;48659;41.622;2.276;2024-02-28T09:19:39;7;6;
62591;PMS5003;48659;41.622;2.276;2024-02-28T09:22:07;7;5;
62591;PMS5003;48659;41.622;2.276;2024-02-28T09:24:34;7;4;
62591;PMS5003;48659;41.622;2.276;2024-02-28T09:27:04;3;3;
62591;PMS5003;48659;41.622;2.276;2024-02-28T09:29:32;7;5;
62591;PMS5003;48659;41.622;2.276;2024-02-28T09:31:59;8;4;
62591;PMS5003;48659;41.622;2.276;2024-02-28T09:34:26;6;5;
62591;PMS5003;48659;41.622;2.276;2024-02-28T09:36:53;10;9;
62591;PMS5003;48659;41.622;2.276;2024-02-28T09:39:21;9;7;
62591;PMS5003;48659;41.622;2.276;2024-02-28T09:41:49;6;4;
62591;PMS5003;48659;41.622;2.276;2024-02-28T09:44:16;7;5;
62591;PMS5003;48659;41.622;2.276;2024-02-28T09:46:44;9;9;
62591;PMS5003;48659;41.622;2.276;2024-02-28T09:49:12;4;4;
62591;PMS5003;48659;41.622;2.276;2024-02-28T09:51:41;11;8;
62591;PMS5003;48659;41.622;2.276;2024-02-28T09:54:11;7;6;
62591;PMS5003;48659;41.622;2.276;2024-02-28T09:56:39;13;7;
62591;PMS5003;48659;41.622;2.276;2024-02-28T09:59:06;9;7;
62591;PMS5003;48659;41.622;2.276;2024-02-28T10:01:35;12;10;
62591;PMS5003;48659;41.622;2.276;2024-02-28T10:04:09;6;5;
62591;PMS5003;48659;41.622;2.276;2024-02-28T10:06:37;6;5;
62591;PMS5003;48659;41.622;2.276;2024-02-28T10:09:04;7;6;
62591;PMS5003;48659;41.622;2.276;2024-02-28T10:11:31;8;7;
62591;PMS5003;48659;41.622;2.276;2024-02-28T10:13:59;7;7;
62591;PMS5003;48659;41.622;2.276;2024-02-28T10:16:28;5;5;
62591;PMS5003;48659;41.622;2.276;2024-02-28T10:18:55;9;6;
62591;PMS5003;48659;41.622;2.276;2024-02-28T10:21:23;10;6;
62591;PMS5003;48659;41.622;2.276;2024-02-28T10:23:57;9;9;
62591;PMS5003;48659;41.622;2.276;2024-02-28T10:26:25;9;9;
62591;PMS5003;48659;41.622;2.276;2024-02-28T10:28:56;13;11;
62591;PMS5003;48659;41.622;2.276;2024-02-28T10:31:23;7;6;
62591;PMS5003;48659;41.622;2.276;2024-02-28T10:33:55;12;12;
62591;PMS5003;48659;41.622;2.276;2024-02-28T10:36:22;8;5;
62591;PMS5003;48659;41.622;2.276;2024-02-28T10:38:50;9;7;
62591;PMS5003;48659;41.622;2.276;2024-02-28T10:41:17;9;7;
62591;PMS5003;48659;41.622;2.276;2024-02-28T10:43:46;16;15;
62591;PMS5003;48659;41.622;2.276;2024-02-28T10:46:15;12;11;
62591;PMS5003;48659;41.622;2.276;2024-02-28T10:48:49;10;9;
62591;PMS5003;48659;41.622;2.276;2024-02-28T10:51:23;9;7;
62591;PMS5003;48659;41.622;2.276;2024-02-28T10:53:54;9;7;
62591;PMS5003;48659;41.622;2.276;2024-02-28T10:56:31;10;4;
62591;PMS5003;48659;41.622;2.276;2024-02-28T10:58:59;10;8;
62591;PMS5003;48659;41.622;2.276;2024-02-28T11:01:28;6;5;
62591;PMS5003;48659;41.622;2.276;2024-02-28T11:03:56;4;4;
62591;PMS5003;48659;41.622;2.276;2024-02-28T11:06:23;7;7;
62591;PMS5003;48659;41.622;2.276;2024-02-28T11:08:58;11;8;
62591;PMS5003;48659;41.622;2.276;2024-02-28T11:11:29;7;7;
62591;PMS5003;48659;41.622;2.276;2024-02-28T11:13:58;5;3;
62591;PMS5003;48659;41.622;2.276;2024-02-28T11:16:27;7;7;
62591;PMS5003;48659;41.622;2.276;2024-02-28T11:18:56;7;5;
62591;PMS5003;48659;41.622;2.276;2024-02-28T11:21:24;5;5;
62591;PMS5003;48659;41.622;2.276;2024-02-28T11:23:59;4;2;
62591;PMS5003;48659;41.622;2.276;2024-02-28T11:26:28;3;3;
62591;PMS5003;48659;41.622;2.276;2024-02-28T11:28:56;7;4;
62591;PMS5003;48659;41.622;2.276;2024-02-28T11:31:24;3;2;
62591;PMS5003;48659;41.622;2.276;2024-02-28T11:33:55;3;3;
62591;PMS5003;48659;41.622;2.276;2024-02-28T11:36:23;4;3;
62591;PMS5003;48659;41.622;2.276;2024-02-28T11:38:55;4;4;
62591;PMS5003;48659;41.622;2.276;2024-02-28T11:41:25;4;2;
62591;PMS5003;48659;41.622;2.276;2024-02-28T11:43:55;3;2;
62591;PMS5003;48659;41.622;2.276;2024-02-28T11:46:23;2;2;
62591;PMS5003;48659;41.622;2.276;2024-02-28T11:48:52;2;2;
62591;PMS5003;48659;41.622;2.276;2024-02-28T11:51:19;5;5;
62591;PMS5003;48659;41.622;2.276;2024-02-28T11:53:47;3;3;
62591;PMS5003;48659;41.622;2.276;2024-02-28T11:56:15;5;2;
62591;PMS5003;48659;41.622;2.276;2024-02-28T11:58:55;3;3;
62591;PMS5003;48659;41.622;2.276;2024-02-28T12:01:41;5;2;
62591;PMS5003;48659;41.622;2.276;2024-02-28T12:04:10;3;2;
62591;PMS5003;48659;41.622;2.276;2024-02-28T12:06:38;2;1;
62591;PMS5003;48659;41.622;2.276;2024-02-28T12:09:06;2;2;
62591;PMS5003;48659;41.622;2.276;2024-02-28T12:11:34;1;1;
62591;PMS5003;48659;41.622;2.276;2024-02-28T12:14:03;1;1;
62591;PMS5003;48659;41.622;2.276;2024-02-28T12:16:31;3;3;
62591;PMS5003;48659;41.622;2.276;2024-02-28T12:18:59;2;1;
62591;PMS5003;48659;41.622;2.276;2024-02-28T12:21:26;2;1;
62591;PMS5003;48659;41.622;2.276;2024-02-28T12:23:56;5;4;
62591;PMS5003;48659;41.622;2.276;2024-02-28T12:26:24;5;5;
62591;PMS5003;48659;41.622;2.276;2024-02-28T12:28:51;2;2;
62591;PMS5003;48659;41.622;2.276;2024-02-28T12:31:18;5;4;
62591;PMS5003;48659;41.622;2.276;2024-02-28T12:33:45;4;3;
62591;PMS5003;48659;41.622;2.276;2024-02-28T12:36:13;3;1;
62591;PMS5003;48659;41.622;2.276;2024-02-28T12:38:40;3;2;
62591;PMS5003;48659;41.622;2.276;2024-02-28T12:41:07;2;2;
62591;PMS5003;48659;41.622;2.276;2024-02-28T12:43:35;3;2;
62591;PMS5003;48659;41.622;2.276;2024-02-28T12:46:03;4;3;
62591;PMS5003;48659;41.622;2.276;2024-02-28T12:48:30;2;2;
62591;PMS5003;48659;41.622;2.276;2024-02-28T12:51:03;5;3;
62591;PMS5003;48659;41.622;2.276;2024-02-28T12:53:31;2;2;
62591;PMS5003;48659;41.622;2.276;2024-02-28T12:55:58;3;3;
62591;PMS5003;48659;41.622;2.276;2024-02-28T12:58:25;4;3;
62591;PMS5003;48659;41.622;2.276;2024-02-28T13:00:53;2;2;
62591;PMS5003;48659;41.622;2.276;2024-02-28T13:03:21;2;2;
62591;PMS5003;48659;41.622;2.276;2024-02-28T13:05:56;6;3;
62591;PMS5003;48659;41.622;2.276;2024-02-28T13:08:23;3;3;
62591;PMS5003;48659;41.622;2.276;2024-02-28T13:10:59;2;2;
62591;PMS5003;48659;41.622;2.276;2024-02-28T13:13:27;3;1;
62591;PMS5003;48659;41.622;2.276;2024-02-28T13:15:57;2;2;
62591;PMS5003;48659;41.622;2.276;2024-02-28T13:18:24;5;2;
62591;PMS5003;48659;41.622;2.276;2024-02-28T13:20:56;3;3;
62591;PMS5003;48659;41.622;2.276;2024-02-28T13:23:24;4;2;
62591;PMS5003;48659;41.622;2.276;2024-02-28T13:25:51;4;3;
62591;PMS5003;48659;41.622;2.276;2024-02-28T13:28:19;3;1;
62591;PMS5003;48659;41.622;2.276;2024-02-28T13:30:46;6;3;
62591;PMS5003;48659;41.622;2.276;2024-02-28T13:33:13;1;1;
62591;PMS5003;48659;41.622;2.276;2024-02-28T13:35:41;8;7;
62591;PMS5003;48659;41.622;2.276;2024-02-28T13:38:09;3;2;
62591;PMS5003;48659;41.622;2.276;2024-02-28T13:40:36;3;1;
62591;PMS5003;48659;41.622;2.276;2024-02-28T13:43:04;1;1;
62591;PMS5003;48659;41.622;2.276;2024-02-28T13:45:31;3;2;
62591;PMS5003;48659;41.622;2.276;2024-02-28T13:48:14;3;3;
62591;PMS5003;48659;41.622;2.276;2024-02-28T13:50:43;2;1;
62591;PMS5003;48659;41.622;2.276;2024-02-28T13:53:10;1;1;
62591;PMS5003;48659;41.622;2.276;2024-02-28T13:55:38;1;1;
62591;PMS5003;48659;41.622;2.276;2024-02-28T13:58:06;1;1;
62591;PMS5003;48659;41.622;2.276;2024-02-28T14:00:33;1;1;
62591;PMS5003;48659;41.622;2.276;2024-02-28T14:03:01;2;0;
62591;PMS5003;48659;41.622;2.276;2024-02-28T14:05:28;2;0;
62591;PMS5003;48659;41.622;2.276;2024-02-28T14:07:56;0;0;
62591;PMS5003;48659;41.622;2.276;2024-02-28T14:10:24;1;0;
62591;PMS5003;48659;41.622;2.276;2024-02-28T14:12:56;1;1;
62591;PMS5003;48659;41.622;2.276;2024-02-28T14:15:23;0;0;
62591;PMS5003;48659;41.622;2.276;2024-02-28T14:17:55;2;0;
62591;PMS5003;48659;41.622;2.276;2024-02-28T14:20:22;1;1;
62591;PMS5003;48659;41.622;2.276;2024-02-28T14:22:55;2;2;
62591;PMS5003;48659;41.622;2.276;2024-02-28T14:25:23;1;1;
62591;PMS5003;48659;41.622;2.276;2024-02-28T14:27:56;3;3;
62591;PMS5003;48659;41.622;2.276;2024-02-28T14:30:24;2;2;
62591;PMS5003;48659;41.622;2.276;2024-02-28T14:32:52;2;1;
62591;PMS5003;48659;41.622;2.276;2024-02-28T14:35:19;2;1;
62591;PMS5003;48659;41.622;2.276;2024-02-28T14:38:03;4;2;
62591;PMS5003;48659;41.622;2.276;2024-02-28T14:40:31;0;0;
62591;PMS5003;48659;41.622;2.276;2024-02-28T14:42:58;1;1;
62591;PMS5003;48659;41.622;2.276;2024-02-28T14:45:26;2;2;
62591;PMS5003;48659;41.622;2.276;2024-02-28T14:48:06;1;1;
62591;PMS5003;48659;41.622;2.276;2024-02-28T14:50:34;0;0;
62591;PMS5003;48659;41.622;2.276;2024-02-28T14:53:02;1;1;
62591;PMS5003;48659;41.622;2.276;2024-02-28T14:55:30;2;1;
62591;PMS5003;48659;41.622;2.276;2024-02-28T14:57:57;2;1;
62591;PMS5003;48659;41.622;2.276;2024-02-28T15:00:25;1;0;
62591;PMS5003;48659;41.622;2.276;2024-02-28T15:02:56;1;0;
62591;PMS5003;48659;41.622;2.276;2024-02-28T15:05:23;0;0;
62591;PMS5003;48659;41.622;2.276;2024-02-28T15:07:51;1;1;
62591;PMS5003;48659;41.622;2.276;2024-02-28T15:10:18;1;1;
62591;PMS5003;48659;41.622;2.276;2024-02-28T15:12:46;0;0;
62591;PMS5003;48659;41.622;2.276;2024-02-28T15:15:23;1;1;
62591;PMS5003;48659;41.622;2.276;2024-02-28T15:17:50;1;1;
62591;PMS5003;48659;41.622;2.276;2024-02-28T15:20:18;1;1;
62591;PMS5003;48659;41.622;2.276;2024-02-28T15:22:46;1;1;
62591;PMS5003;48659;41.622;2.276;2024-02-28T15:25:13;1;1;
62591;PMS5003;48659;41.622;2.276;2024-02-28T15:27:40;0;0;
62591;PMS5003;48659;41.622;2.276;2024-02-28T15:30:08;0;0;
62591;PMS5003;48659;41.622;2.276;2024-02-28T15:32:36;2;2;
62591;PMS5003;48659;41.622;2.276;2024-02-28T15:35:03;2;2;
62591;PMS5003;48659;41.622;2.276;2024-02-28T15:37:31;0;0;
62591;PMS5003;48659;41.622;2.276;2024-02-28T15:39:59;3;0;
62591;PMS5003;48659;41.622;2.276;2024-02-28T15:42:26;2;0;
62591;PMS5003;48659;41.622;2.276;2024-02-28T15:44:57;0;0;
62591;PMS5003;48659;41.622;2.276;2024-02-28T15:47:24;1;1;
62591;PMS5003;48659;41.622;2.276;2024-02-28T15:49:51;1;1;
62591;PMS5003;48659;41.622;2.276;2024-02-28T15:52:19;1;1;
62591;PMS5003;48659;41.622;2.276;2024-02-28T15:54:59;1;1;
62591;PMS5003;48659;41.622;2.276;2024-02-28T15:57:27;3;2;
62591;PMS5003;48659;41.622;2.276;2024-02-28T15:59:53;1;1;
62591;PMS5003;48659;41.622;2.276;2024-02-28T16:02:21;0;0;
62591;PMS5003;48659;41.622;2.276;2024-02-28T16:04:57;1;1;
62591;PMS5003;48659;41.622;2.276;2024-02-28T16:07:25;3;3;
62591;PMS5003;48659;41.622;2.276;2024-02-28T16:09:56;0;0;
62591;PMS5003;48659;41.622;2.276;2024-02-28T16:12:24;1;1;
62591;PMS5003;48659;41.622;2.276;2024-02-28T16:14:52;3;1;
62591;PMS5003;48659;41.622;2.276;2024-02-28T16:17:19;2;2;
62591;PMS5003;48659;41.622;2.276;2024-02-28T16:19:46;4;3;
62591;PMS5003;48659;41.622;2.276;2024-02-28T16:22:14;1;1;
62591;PMS5003;48659;41.622;2.276;2024-02-28T16:24:41;1;1;
62591;PMS5003;48659;41.622;2.276;2024-02-28T16:27:08;3;3;
62591;PMS5003;48659;41.622;2.276;2024-02-28T16:29:36;11;8;
62591;PMS5003;48659;41.622;2.276;2024-02-28T16:32:04;8;8;
62591;PMS5003;48659;41.622;2.276;2024-02-28T16:34:32;4;2;
62591;PMS5003;48659;41.622;2.276;2024-02-28T16:36:59;1;1;
62591;PMS5003;48659;41.622;2.276;2024-02-28T16:39:26;2;2;
62591;PMS5003;48659;41.622;2.276;2024-02-28T16:41:53;2;2;
62591;PMS5003;48659;41.622;2.276;2024-02-28T16:44:21;7;2;
62591;PMS5003;48659;41.622;2.276;2024-02-28T16:46:49;1;1;
62591;PMS5003;48659;41.622;2.276;2024-02-28T16:49:18;5;3;
62591;PMS5003;48659;41.622;2.276;2024-02-28T16:51:45;2;2;
62591;PMS5003;48659;41.622;2.276;2024-02-28T16:54:13;2;2;